createdAt,value
2018-05-27T00:01:06.440Z,5.37
2018-05-27T00:03:33.226Z,6.27
2018-05-27T00:06:00.048Z,5.60
2018-05-27T00:08:27.651Z,8.23
2018-05-27T00:10:54.436Z,6.60
2018-05-27T00:13:21.288Z,7.03
2018-05-27T00:15:48.333Z,7.97
2018-05-27T00:18:15.302Z,6.03
2018-05-27T00:20:42.856Z,7.73
2018-05-27T00:23:09.632Z,7.20
2018-05-27T00:25:36.480Z,6.43
2018-05-27T00:28:03.328Z,8.33
2018-05-27T00:30:30.152Z,7.03
2018-05-27T00:32:56.989Z,7.07
2018-05-27T00:35:23.813Z,7.83
2018-05-27T00:37:50.636Z,5.97
2018-05-27T00:40:17.465Z,7.93
2018-05-27T00:42:44.980Z,7.53
2018-05-27T00:45:18.736Z,5.87
2018-05-27T00:47:45.521Z,8.10
2018-05-27T00:50:12.298Z,7.40
2018-05-27T00:52:39.868Z,7.77
2018-05-27T00:55:07.387Z,7.77
2018-05-27T00:57:34.939Z,10.00
2018-05-27T01:00:01.780Z,9.87
2018-05-27T01:02:28.560Z,8.07
2018-05-27T01:04:55.381Z,9.77
2018-05-27T01:07:22.172Z,8.83
2018-05-27T01:09:49.036Z,7.77
2018-05-27T01:12:16.076Z,9.90
2018-05-27T01:14:42.897Z,7.80
2018-05-27T01:17:10.432Z,7.67
2018-05-27T01:19:37.527Z,8.10
2018-05-27T01:22:04.381Z,8.27
2018-05-27T01:24:31.220Z,8.90
2018-05-27T01:26:58.073Z,7.73
2018-05-27T01:29:24.848Z,10.70
2018-05-27T01:31:51.681Z,11.07
2018-05-27T01:34:19.296Z,9.10
2018-05-27T01:36:46.848Z,10.13
2018-05-27T01:39:14.379Z,8.07
2018-05-27T01:41:41.215Z,9.93
2018-05-27T01:44:08.003Z,8.87
2018-05-27T01:46:34.880Z,8.57
2018-05-27T01:49:01.689Z,13.90
2018-05-27T01:51:29.257Z,9.30
2018-05-27T01:53:56.099Z,11.00
2018-05-27T01:56:23.608Z,9.93
2018-05-27T01:58:51.355Z,9.80
2018-05-27T02:01:18.135Z,9.13
2018-05-27T02:03:44.911Z,11.33
2018-05-27T02:06:11.745Z,9.90
2018-05-27T02:08:39.268Z,10.57
2018-05-27T02:11:06.176Z,12.77
2018-05-27T02:13:32.990Z,11.33
2018-05-27T02:16:00.516Z,13.30
2018-05-27T02:18:27.479Z,13.20
2018-05-27T02:20:54.270Z,12.23
2018-05-27T02:23:21.097Z,12.50
2018-05-27T02:25:48.236Z,12.57
2018-05-27T02:28:16.000Z,14.90
2018-05-27T02:30:43.519Z,12.13
2018-05-27T02:33:10.331Z,13.00
2018-05-27T02:35:37.163Z,12.17
2018-05-27T02:38:04.416Z,13.03
2018-05-27T02:40:31.216Z,12.43
2018-05-27T02:42:58.036Z,13.27
2018-05-27T02:45:30.970Z,14.43
2018-05-27T02:47:57.825Z,16.57
2018-05-27T02:50:25.381Z,12.40
2018-05-27T02:52:52.897Z,13.80
2018-05-27T02:55:19.982Z,15.33
2018-05-27T02:57:47.505Z,14.30
2018-05-27T03:00:15.126Z,15.83
2018-05-27T03:02:41.932Z,14.70
2018-05-27T03:05:08.791Z,12.80
2018-05-27T03:07:35.633Z,13.90
2018-05-27T03:10:02.520Z,14.80
2018-05-27T03:12:29.537Z,17.60
2018-05-27T03:14:57.058Z,17.47
2018-05-27T03:17:23.851Z,15.43
2018-05-27T03:19:51.409Z,15.60
2018-05-27T03:22:18.971Z,15.47
2018-05-27T03:24:45.834Z,14.57
2018-05-27T03:27:12.668Z,16.20
2018-05-27T03:29:39.460Z,16.17
2018-05-27T03:32:06.423Z,15.03
2018-05-27T03:34:33.199Z,15.30
2018-05-27T03:37:00.075Z,14.97
2018-05-27T03:39:27.096Z,16.93
2018-05-27T03:41:53.915Z,16.47
2018-05-27T03:44:21.442Z,18.77
2018-05-27T03:46:48.288Z,14.60
2018-05-27T03:49:15.147Z,18.03
2018-05-27T03:51:41.924Z,15.63
2018-05-27T03:54:08.745Z,14.40
2018-05-27T03:56:36.260Z,18.17
2018-05-27T03:59:03.109Z,18.10
2018-05-27T04:01:30.677Z,14.77
2018-05-27T04:04:15.890Z,17.83
2018-05-27T04:07:01.856Z,15.80
2018-05-27T04:09:28.668Z,19.43
2018-05-27T04:11:56.389Z,14.90
2018-05-27T04:14:23.944Z,16.43
2018-05-27T04:16:51.502Z,15.13
2018-05-27T04:19:19.018Z,15.37
2018-05-27T04:21:46.179Z,14.60
2018-05-27T04:24:13.743Z,15.03
2018-05-27T04:26:40.608Z,15.63
2018-05-27T04:29:07.435Z,15.40
2018-05-27T04:31:34.217Z,18.43
2018-05-27T04:34:02.152Z,17.07
2018-05-27T04:36:29.039Z,15.90
2018-05-27T04:38:55.795Z,17.80
2018-05-27T04:41:22.647Z,15.43
2018-05-27T04:43:49.418Z,16.37
2018-05-27T04:46:16.289Z,18.53
2018-05-27T04:48:43.916Z,18.90
2018-05-27T04:51:10.748Z,17.87
2018-05-27T04:53:37.769Z,16.17
2018-05-27T04:56:04.683Z,15.07
2018-05-27T04:58:31.514Z,23.90
2018-05-27T05:00:58.351Z,21.00
2018-05-27T05:03:25.169Z,14.40
2018-05-27T05:05:52.015Z,21.17
2018-05-27T05:08:18.838Z,15.67
2018-05-27T05:10:45.625Z,15.40
2018-05-27T05:13:13.193Z,14.90
2018-05-27T05:15:44.031Z,17.47
2018-05-27T05:18:10.817Z,14.63
2018-05-27T05:20:37.635Z,17.80
2018-05-27T05:23:04.515Z,15.90
2018-05-27T05:25:31.344Z,14.90
2018-05-27T05:27:58.908Z,15.67
2018-05-27T05:30:25.759Z,17.23
2018-05-27T05:32:52.575Z,17.60
2018-05-27T05:35:20.136Z,15.73
2018-05-27T05:37:46.968Z,15.80
2018-05-27T05:40:14.550Z,14.73
2018-05-27T05:42:42.084Z,16.57
2018-05-27T05:45:08.936Z,16.07
2018-05-27T05:47:36.005Z,16.90
2018-05-27T05:50:02.881Z,18.40
2018-05-27T05:52:29.745Z,16.73
2018-05-27T05:54:56.516Z,16.43
2018-05-27T05:57:23.385Z,16.33
2018-05-27T05:59:50.903Z,14.80
2018-05-27T06:02:18.521Z,19.37
2018-05-27T06:04:45.292Z,15.03
2018-05-27T06:07:12.072Z,19.40
2018-05-27T06:09:38.895Z,14.20
2018-05-27T06:12:05.677Z,15.33
2018-05-27T06:14:32.549Z,16.00
2018-05-27T06:16:59.324Z,14.90
2018-05-27T06:19:26.916Z,17.90
2018-05-27T06:21:53.771Z,19.53
2018-05-27T06:24:21.283Z,13.73
2018-05-27T06:26:48.839Z,15.90
2018-05-27T06:29:15.660Z,17.50
2018-05-27T06:31:42.452Z,15.23
2018-05-27T06:34:09.264Z,15.30
2018-05-27T06:36:36.040Z,13.03
2018-05-27T06:39:03.007Z,16.10
2018-05-27T06:41:30.528Z,14.97
2018-05-27T06:43:57.360Z,15.30
2018-05-27T06:46:24.231Z,13.73
2018-05-27T06:48:51.041Z,13.13
2018-05-27T06:51:18.713Z,12.10
2018-05-27T06:53:45.466Z,11.67
2018-05-27T06:56:12.438Z,13.03
2018-05-27T06:58:39.260Z,11.07
2018-05-27T07:01:06.095Z,11.23
2018-05-27T07:03:33.658Z,11.47
2018-05-27T07:06:00.476Z,9.63
2018-05-27T07:08:28.773Z,10.23
2018-05-27T07:10:56.296Z,9.70
2018-05-27T07:13:23.963Z,13.17
2018-05-27T07:15:50.780Z,10.17
2018-05-27T07:18:18.368Z,11.47
2018-05-27T07:20:45.151Z,8.47
2018-05-27T07:23:11.976Z,9.60
2018-05-27T07:25:38.772Z,10.97
2018-05-27T07:28:05.694Z,9.80
2018-05-27T07:30:33.143Z,8.67
2018-05-27T07:32:59.937Z,8.90
2018-05-27T07:35:26.757Z,8.77
2018-05-27T07:37:54.307Z,8.57
2018-05-27T07:40:21.188Z,8.47
2018-05-27T07:42:47.968Z,9.10
2018-05-27T07:45:20.919Z,7.83
2018-05-27T07:47:47.834Z,7.33
2018-05-27T07:50:15.919Z,7.10
2018-05-27T07:52:42.797Z,8.27
2018-05-27T07:55:09.562Z,6.50
2018-05-27T07:57:36.383Z,9.47
2018-05-27T08:00:03.221Z,9.90
2018-05-27T08:02:30.036Z,7.03
2018-05-27T08:04:56.865Z,7.80
2018-05-27T08:07:23.688Z,8.13
2018-05-27T08:09:50.568Z,6.07
2018-05-27T08:12:18.157Z,10.07
2018-05-27T08:14:44.940Z,7.73
2018-05-27T08:17:11.920Z,9.70
2018-05-27T08:19:39.472Z,5.30
2018-05-27T08:22:06.990Z,5.20
2018-05-27T08:27:07.416Z,5.47
2018-05-27T08:29:34.380Z,6.03
2018-05-27T08:32:01.160Z,5.17
2018-05-27T08:34:27.937Z,5.47
2018-05-27T08:36:54.755Z,6.37
2018-05-27T08:39:21.580Z,5.30
2018-05-27T08:41:48.419Z,5.90
2018-05-27T08:44:15.236Z,4.67
2018-05-27T08:46:42.043Z,5.47
2018-05-27T08:49:09.610Z,4.33
2018-05-27T08:51:36.409Z,4.40
2018-05-27T08:54:03.248Z,4.63
2018-05-27T08:56:30.023Z,4.60
2018-05-27T08:58:57.611Z,7.07
2018-05-27T09:01:24.966Z,4.37
2018-05-27T09:03:52.237Z,4.33
2018-05-27T09:06:19.274Z,4.37
2018-05-27T09:08:46.051Z,4.27
2018-05-27T09:11:12.901Z,5.87
2018-05-27T09:13:39.858Z,4.30
2018-05-27T09:16:06.620Z,4.37
2018-05-27T09:18:33.436Z,4.03
2018-05-27T09:21:00.284Z,6.30
2018-05-27T09:23:27.056Z,5.17
2018-05-27T09:25:54.642Z,5.00
2018-05-27T09:28:21.460Z,6.33
2018-05-27T09:30:48.283Z,4.47
2018-05-27T09:33:15.060Z,7.97
2018-05-27T09:35:41.868Z,5.13
2018-05-27T09:38:08.646Z,5.50
2018-05-27T09:40:35.407Z,5.37
2018-05-27T09:43:02.292Z,5.03
2018-05-27T09:45:35.269Z,6.50
2018-05-27T09:48:02.088Z,5.57
2018-05-27T09:50:28.921Z,5.77
2018-05-27T09:52:55.692Z,4.37
2018-05-27T09:55:22.531Z,4.93
2018-05-27T09:57:49.490Z,4.93
2018-05-27T10:00:16.296Z,4.30
2018-05-27T10:02:43.068Z,4.13
2018-05-27T10:05:09.896Z,2.93
2018-05-27T10:07:36.811Z,3.00
2018-05-27T10:10:03.614Z,3.63
2018-05-27T10:12:30.425Z,3.63
2018-05-27T10:14:57.223Z,3.10
2018-05-27T10:17:25.008Z,3.80
2018-05-27T10:19:51.868Z,2.90
2018-05-27T10:22:18.684Z,3.20
2018-05-27T10:24:46.202Z,3.27
2018-05-27T10:27:13.067Z,3.10
2018-05-27T10:29:39.833Z,3.77
2018-05-27T10:32:06.664Z,3.23
2018-05-27T10:34:34.244Z,2.70
2018-05-27T10:37:01.746Z,2.70
2018-05-27T10:39:29.250Z,3.50
2018-05-27T10:41:56.935Z,2.27
2018-05-27T10:44:23.752Z,3.17
2018-05-27T10:46:51.259Z,4.07
2018-05-27T10:49:18.075Z,3.33
2018-05-27T10:51:44.834Z,3.43
2018-05-27T10:54:11.627Z,3.00
2018-05-27T10:56:38.648Z,2.63
2018-05-27T10:59:05.447Z,3.07
2018-05-27T11:01:32.218Z,3.40
2018-05-27T11:04:00.180Z,3.73
2018-05-27T11:06:26.944Z,2.93
2018-05-27T11:08:53.788Z,2.60
2018-05-27T11:11:21.352Z,3.60
2018-05-27T11:13:48.122Z,2.90
2018-05-27T11:16:14.877Z,3.47
2018-05-27T11:18:42.428Z,3.00
2018-05-27T11:21:09.253Z,3.20
2018-05-27T11:23:36.018Z,3.03
2018-05-27T11:26:03.579Z,3.77
2018-05-27T11:28:31.159Z,3.20
2018-05-27T11:30:57.976Z,3.97
2018-05-27T11:33:24.799Z,4.23
2018-05-27T11:35:51.556Z,2.70
2018-05-27T11:38:18.717Z,5.17
2018-05-27T11:40:46.256Z,4.87
2018-05-27T11:43:13.491Z,2.47
2018-05-27T11:45:41.044Z,2.70
2018-05-27T11:48:07.809Z,2.50
2018-05-27T11:50:34.727Z,2.40
2018-05-27T11:53:01.539Z,2.20
2018-05-27T11:55:28.332Z,2.97
2018-05-27T11:57:55.932Z,2.60
2018-05-27T12:00:23.440Z,2.63
2018-05-27T12:02:50.206Z,2.10
2018-05-27T12:05:17.011Z,2.23
2018-05-27T12:07:43.777Z,2.73
2018-05-27T12:10:11.356Z,3.33
2018-05-27T12:12:38.173Z,2.60
2018-05-27T12:15:05.187Z,3.17
2018-05-27T12:17:32.700Z,2.80
2018-05-27T12:19:59.742Z,2.73
2018-05-27T12:22:27.675Z,3.07
2018-05-27T12:24:54.717Z,2.50
2018-05-27T12:27:21.526Z,2.90
2018-05-27T12:29:48.374Z,4.00
2018-05-27T12:32:15.192Z,4.77
2018-05-27T12:34:42.093Z,2.27
2018-05-27T12:37:08.864Z,2.77
2018-05-27T12:39:36.047Z,4.63
2018-05-27T12:42:02.914Z,4.10
2018-05-27T12:44:30.414Z,2.30
2018-05-27T12:46:57.327Z,2.30
2018-05-27T12:49:25.018Z,4.27
2018-05-27T12:51:51.808Z,2.83
2018-05-27T12:54:18.641Z,3.10
2018-05-27T12:56:45.466Z,2.10
2018-05-27T12:59:13.039Z,3.27
2018-05-27T13:01:39.836Z,2.57
2018-05-27T13:04:06.726Z,3.60
2018-05-27T13:06:33.506Z,2.70
2018-05-27T13:09:01.089Z,2.83
2018-05-27T13:11:27.976Z,2.60
2018-05-27T13:13:54.799Z,2.60
2018-05-27T13:16:21.646Z,2.27
2018-05-27T13:18:48.544Z,2.43
2018-05-27T13:21:16.100Z,2.97
2018-05-27T13:23:42.935Z,2.13
2018-05-27T13:26:09.887Z,2.50
2018-05-27T13:28:37.063Z,2.33
2018-05-27T13:31:03.959Z,2.97
2018-05-27T13:33:30.923Z,2.63
2018-05-27T13:35:57.773Z,3.33
2018-05-27T13:38:25.296Z,2.50
2018-05-27T13:40:52.207Z,3.07
2018-05-27T13:43:19.695Z,3.17
2018-05-27T13:45:46.460Z,3.20
2018-05-27T13:48:13.324Z,2.40
2018-05-27T13:50:40.086Z,4.13
2018-05-27T13:53:07.596Z,3.00
2018-05-27T13:55:34.396Z,2.47
2018-05-27T13:58:01.164Z,3.40
2018-05-27T14:00:28.739Z,3.60
2018-05-27T14:02:55.544Z,2.80
2018-05-27T14:05:22.325Z,2.63
2018-05-27T14:07:49.113Z,2.50
2018-05-27T14:10:15.997Z,2.93
2018-05-27T14:12:42.832Z,2.63
2018-05-27T14:15:16.327Z,3.00
2018-05-27T14:17:43.103Z,3.00
2018-05-27T14:20:09.886Z,4.13
2018-05-27T14:22:37.444Z,2.80
2018-05-27T14:25:04.311Z,2.53
2018-05-27T14:27:31.096Z,3.37
2018-05-27T14:29:58.063Z,3.00
2018-05-27T14:32:24.907Z,3.17
2018-05-27T14:34:51.675Z,4.17
2018-05-27T14:37:18.712Z,3.50
2018-05-27T14:39:46.260Z,4.80
2018-05-27T14:42:13.067Z,2.83
2018-05-27T14:44:39.876Z,3.93
2018-05-27T14:47:06.655Z,4.40
2018-05-27T14:49:34.226Z,4.30
2018-05-27T14:52:01.074Z,3.60
2018-05-27T14:54:27.863Z,4.17
2018-05-27T14:56:55.439Z,3.33
2018-05-27T14:59:22.375Z,3.00
2018-05-27T15:01:49.252Z,4.03
2018-05-27T15:04:16.023Z,3.33
2018-05-27T15:06:42.874Z,3.77
2018-05-27T15:09:09.676Z,4.07
2018-05-27T15:11:36.490Z,3.07
2018-05-27T15:14:03.560Z,9.80
2018-05-27T15:16:30.332Z,3.90
2018-05-27T15:18:57.132Z,3.13
2018-05-27T15:21:25.435Z,4.00
2018-05-27T15:23:53.517Z,3.57
2018-05-27T15:26:21.787Z,4.03
2018-05-27T15:28:49.682Z,3.73
2018-05-27T15:31:17.405Z,3.07
2018-05-27T15:33:50.030Z,3.30
2018-05-27T15:36:20.277Z,3.80
2018-05-27T15:38:51.106Z,2.70
2018-05-27T15:41:23.462Z,2.80
2018-05-27T15:43:52.444Z,3.60
2018-05-27T15:46:20.776Z,3.10
2018-05-27T15:48:47.993Z,2.80
2018-05-27T15:51:15.024Z,5.77
2018-05-27T15:53:42.533Z,5.70
2018-05-27T15:56:09.767Z,3.80
2018-05-27T15:58:37.878Z,3.40
2018-05-27T16:01:05.386Z,3.80
2018-05-27T16:03:33.214Z,3.30
2018-05-27T16:06:01.063Z,3.53
2018-05-27T16:08:28.585Z,3.30
2018-05-27T16:10:56.479Z,3.63
2018-05-27T16:13:24.647Z,3.23
2018-05-27T16:15:53.775Z,3.17
2018-05-27T16:18:21.604Z,3.10
2018-05-27T16:20:49.112Z,3.10
2018-05-27T16:23:15.944Z,3.33
2018-05-27T16:25:43.597Z,3.00
2018-05-27T16:28:10.372Z,3.13
2018-05-27T16:30:37.280Z,4.13
2018-05-27T16:33:04.091Z,3.10
2018-05-27T16:35:30.874Z,3.60
2018-05-27T16:37:57.794Z,3.10
2018-05-27T16:40:25.323Z,3.70
2018-05-27T16:42:52.088Z,3.40
2018-05-27T16:45:24.896Z,3.63
2018-05-27T16:47:51.729Z,4.27
2018-05-27T16:50:18.568Z,4.23
2018-05-27T16:52:46.158Z,4.73
2018-05-27T16:55:12.971Z,4.43
2018-05-27T16:57:40.488Z,4.40
2018-05-27T17:00:07.391Z,3.63
2018-05-27T17:02:34.183Z,3.13
2018-05-27T17:05:00.959Z,3.33
2018-05-27T17:07:28.852Z,3.30
2018-05-27T17:09:55.628Z,3.87
2018-05-27T17:12:22.453Z,3.83
2018-05-27T17:14:50.095Z,3.70
2018-05-27T17:17:16.866Z,4.70
2018-05-27T17:19:43.633Z,3.40
2018-05-27T17:22:10.448Z,3.73
2018-05-27T17:24:37.240Z,5.63
2018-05-27T17:27:04.234Z,3.57
2018-05-27T17:29:31.043Z,4.17
2018-05-27T17:31:58.555Z,4.23
2018-05-27T17:34:25.352Z,5.63
2018-05-27T17:36:52.956Z,5.03
2018-05-27T17:39:20.526Z,5.30
2018-05-27T17:41:47.299Z,5.03
2018-05-27T17:44:14.127Z,6.53
2018-05-27T17:46:40.916Z,5.37
2018-05-27T17:49:07.687Z,5.80
2018-05-27T17:51:35.436Z,5.57
2018-05-27T17:54:02.991Z,5.27
2018-05-27T17:56:29.769Z,6.60
2018-05-27T17:58:56.736Z,6.50
2018-05-27T18:01:23.520Z,6.40
2018-05-27T18:03:50.364Z,6.87
2018-05-27T18:06:17.194Z,6.90
2018-05-27T18:08:43.984Z,6.43
2018-05-27T18:11:10.781Z,7.50
2018-05-27T18:13:38.035Z,6.63
2018-05-27T18:16:11.020Z,8.37
2018-05-27T18:18:38.563Z,6.70
2018-05-27T18:21:05.384Z,6.40
2018-05-27T18:23:32.382Z,5.67
2018-05-27T18:25:59.156Z,8.27
2018-05-27T18:28:26.857Z,6.90
2018-05-27T18:30:53.622Z,6.20
2018-05-27T18:33:21.132Z,6.47
2018-05-27T18:35:47.968Z,7.17
2018-05-27T18:38:14.789Z,6.43
2018-05-27T18:40:41.608Z,7.40
2018-05-27T18:43:09.170Z,7.37
2018-05-27T18:45:42.028Z,7.27
2018-05-27T18:48:08.825Z,6.90
2018-05-27T18:50:35.733Z,8.10
2018-05-27T18:53:02.563Z,7.33
2018-05-27T18:55:29.352Z,8.00
2018-05-27T18:57:56.193Z,8.60
2018-05-27T19:00:22.971Z,7.27
2018-05-27T19:02:49.979Z,7.60
2018-05-27T19:05:17.052Z,7.97
2018-05-27T19:07:43.826Z,8.27
2018-05-27T19:10:10.596Z,7.30
2018-05-27T19:12:38.139Z,7.83
2018-05-27T19:15:04.984Z,8.87
2018-05-27T19:17:31.839Z,8.13
2018-05-27T19:19:59.355Z,7.30
2018-05-27T19:22:26.178Z,7.57
2018-05-27T19:24:52.951Z,7.93
2018-05-27T19:27:19.720Z,8.53
2018-05-27T19:29:46.594Z,8.13
2018-05-27T19:32:13.410Z,7.27
2018-05-27T19:34:40.164Z,7.70
2018-05-27T19:37:07.719Z,8.20
2018-05-27T19:39:35.227Z,10.60
2018-05-27T19:42:02.818Z,8.83
2018-05-27T19:44:29.632Z,7.77
2018-05-27T19:46:57.465Z,7.87
2018-05-27T19:49:24.327Z,8.97
2018-05-27T19:51:51.182Z,8.40
2018-05-27T19:54:18.753Z,7.37
2018-05-27T19:56:45.530Z,10.50
2018-05-27T19:59:12.447Z,9.37
2018-05-27T20:01:39.231Z,8.83
2018-05-27T20:04:06.759Z,8.53
2018-05-27T20:06:33.896Z,7.63
2018-05-27T20:09:00.689Z,9.00
2018-05-27T20:11:28.204Z,8.57
2018-05-27T20:13:55.065Z,8.87
2018-05-27T20:16:21.839Z,8.60
2018-05-27T20:18:48.757Z,10.60
2018-05-27T20:21:15.587Z,8.60
2018-05-27T20:23:42.959Z,8.40
2018-05-27T20:26:09.724Z,8.47
2018-05-27T20:28:37.276Z,8.70
2018-05-27T20:31:04.106Z,8.87
2018-05-27T20:33:30.882Z,9.07
2018-05-27T20:35:57.686Z,8.67
2018-05-27T20:38:24.451Z,8.73
2018-05-27T20:40:51.963Z,8.90
2018-05-27T20:43:19.588Z,8.87
2018-05-27T20:45:52.420Z,8.47
2018-05-27T20:48:20.020Z,10.07
2018-05-27T20:50:46.816Z,9.07
2018-05-27T20:53:13.591Z,9.67
2018-05-27T20:55:40.473Z,9.23
2018-05-27T20:58:07.256Z,10.50
2018-05-27T21:00:34.032Z,10.07
2018-05-27T21:03:01.589Z,9.33
2018-05-27T21:05:29.210Z,9.60
2018-05-27T21:07:56.832Z,10.03
2018-05-27T21:10:23.602Z,9.57
2018-05-27T21:12:50.372Z,8.60
2018-05-27T21:15:23.039Z,9.37
2018-05-27T21:17:49.824Z,9.70
2018-05-27T21:20:16.746Z,9.13
2018-05-27T21:22:43.561Z,8.77
2018-05-27T21:25:10.336Z,8.97
2018-05-27T21:27:37.411Z,8.63
2018-05-27T21:30:04.951Z,9.10
2018-05-27T21:32:31.800Z,8.33
2018-05-27T21:34:59.586Z,9.23
2018-05-27T21:37:27.096Z,9.60
2018-05-27T21:39:53.869Z,8.73
2018-05-27T21:42:21.423Z,9.50
2018-05-27T21:44:48.243Z,8.97
2018-05-27T21:47:15.018Z,8.73
2018-05-27T21:49:42.591Z,8.77
2018-05-27T21:52:10.353Z,8.90
2018-05-27T21:54:37.863Z,9.00
2018-05-27T21:57:05.475Z,9.23
2018-05-27T21:59:33.004Z,9.10
2018-05-27T22:01:59.771Z,8.30
2018-05-27T22:04:27.480Z,8.70
2018-05-27T22:06:54.239Z,8.60
2018-05-27T22:09:21.060Z,10.27
2018-05-27T22:11:47.975Z,8.53
2018-05-27T22:14:15.486Z,11.87
2018-05-27T22:16:42.300Z,8.97
2018-05-27T22:19:09.268Z,10.13
2018-05-27T22:21:36.202Z,8.87
2018-05-27T22:24:03.338Z,9.87
2018-05-27T22:26:30.295Z,9.13
2018-05-27T22:28:57.059Z,10.80
2018-05-27T22:31:23.831Z,9.37
2018-05-27T22:33:50.703Z,9.47
2018-05-27T22:36:18.451Z,9.43
2018-05-27T22:38:45.984Z,9.33
2018-05-27T22:41:12.804Z,9.67
2018-05-27T22:43:39.579Z,10.30
2018-05-27T22:46:06.413Z,9.33
2018-05-27T22:48:33.230Z,9.40
2018-05-27T22:51:00.017Z,9.43
2018-05-27T22:53:26.798Z,9.80
2018-05-27T22:55:59.530Z,9.43
2018-05-27T22:58:26.340Z,10.67
2018-05-27T23:00:53.315Z,11.07
2018-05-27T23:03:19.941Z,10.50
2018-05-27T23:05:46.720Z,9.93
2018-05-27T23:08:19.728Z,10.60
2018-05-27T23:10:46.419Z,11.00
2018-05-27T23:13:13.063Z,10.97
2018-05-27T23:15:39.875Z,10.50
2018-05-27T23:18:06.648Z,10.20
2018-05-27T23:20:33.419Z,10.13
2018-05-27T23:23:01.051Z,10.43
2018-05-27T23:25:27.796Z,12.37
2018-05-27T23:27:54.535Z,11.57
2018-05-27T23:30:21.355Z,10.50
2018-05-27T23:32:48.130Z,10.70
2018-05-27T23:35:14.963Z,10.77
2018-05-27T23:37:41.779Z,10.67
2018-05-27T23:40:08.562Z,11.10
2018-05-27T23:42:35.388Z,10.90
2018-05-27T23:45:02.174Z,10.53
2018-05-27T23:47:28.880Z,10.63
2018-05-27T23:49:55.580Z,10.00
2018-05-27T23:52:22.221Z,13.30
2018-05-27T23:54:49.589Z,10.57
2018-05-27T23:57:16.743Z,11.00
2018-05-27T23:59:43.569Z,10.87
